sensor_id;sensor_type;location;lat;lon;timestamp;P1;durP1;ratioP1;P2;durP2;ratioP2
28958;SDS011;16066;0.000;0.000;2023-03-01T00:01:28;3.57;;;2.83;;
28958;SDS011;16066;0.000;0.000;2023-03-01T00:03:55;4.43;;;2.83;;
28958;SDS011;16066;0.000;0.000;2023-03-01T00:06:21;3.90;;;3.00;;
28958;SDS011;16066;0.000;0.000;2023-03-01T00:08:48;4.20;;;3.00;;
28958;SDS011;16066;0.000;0.000;2023-03-01T00:11:18;4.93;;;3.03;;
28958;SDS011;16066;0.000;0.000;2023-03-01T00:13:49;4.70;;;3.40;;
28958;SDS011;16066;0.000;0.000;2023-03-01T00:16:58;3.57;;;2.93;;
28958;SDS011;16066;0.000;0.000;2023-03-01T00:19:07;4.90;;;3.20;;
28958;SDS011;16066;0.000;0.000;2023-03-01T00:21:34;5.57;;;3.80;;
28958;SDS011;16066;0.000;0.000;2023-03-01T00:24:00;4.33;;;3.03;;
28958;SDS011;16066;0.000;0.000;2023-03-01T00:26:26;3.53;;;3.10;;
28958;SDS011;16066;0.000;0.000;2023-03-01T00:28:52;4.10;;;2.77;;
28958;SDS011;16066;0.000;0.000;2023-03-01T00:31:21;4.00;;;3.50;;
28958;SDS011;16066;0.000;0.000;2023-03-01T00:33:50;5.07;;;3.33;;
28958;SDS011;16066;0.000;0.000;2023-03-01T00:36:18;3.13;;;2.50;;
28958;SDS011;16066;0.000;0.000;2023-03-01T00:38:44;4.30;;;3.27;;
28958;SDS011;16066;0.000;0.000;2023-03-01T00:41:12;3.80;;;2.90;;
28958;SDS011;16066;0.000;0.000;2023-03-01T00:43:39;4.73;;;3.10;;
28958;SDS011;16066;0.000;0.000;2023-03-01T00:46:06;4.40;;;3.30;;
28958;SDS011;16066;0.000;0.000;2023-03-01T00:48:33;5.03;;;3.27;;
28958;SDS011;16066;0.000;0.000;2023-03-01T00:51:10;3.90;;;3.00;;
28958;SDS011;16066;0.000;0.000;2023-03-01T00:53:36;4.90;;;3.50;;
28958;SDS011;16066;0.000;0.000;2023-03-01T00:56:02;4.10;;;2.70;;
28958;SDS011;16066;0.000;0.000;2023-03-01T00:58:28;3.77;;;3.20;;
28958;SDS011;16066;0.000;0.000;2023-03-01T01:00:54;3.83;;;3.10;;
28958;SDS011;16066;0.000;0.000;2023-03-01T01:03:20;3.57;;;2.90;;
28958;SDS011;16066;0.000;0.000;2023-03-01T01:05:46;3.47;;;3.17;;
28958;SDS011;16066;0.000;0.000;2023-03-01T01:08:11;5.00;;;3.07;;
28958;SDS011;16066;0.000;0.000;2023-03-01T01:10:37;4.10;;;3.27;;
28958;SDS011;16066;0.000;0.000;2023-03-01T01:13:03;5.00;;;3.33;;
28958;SDS011;16066;0.000;0.000;2023-03-01T01:15:29;3.87;;;3.10;;
28958;SDS011;16066;0.000;0.000;2023-03-01T01:17:58;3.97;;;3.00;;
28958;SDS011;16066;0.000;0.000;2023-03-01T01:20:24;3.50;;;2.63;;
28958;SDS011;16066;0.000;0.000;2023-03-01T01:22:49;3.27;;;2.73;;
28958;SDS011;16066;0.000;0.000;2023-03-01T01:25:16;3.60;;;3.20;;
28958;SDS011;16066;0.000;0.000;2023-03-01T01:27:41;4.53;;;3.30;;
28958;SDS011;16066;0.000;0.000;2023-03-01T01:30:07;4.00;;;3.07;;
28958;SDS011;16066;0.000;0.000;2023-03-01T01:32:33;3.47;;;2.80;;
28958;SDS011;16066;0.000;0.000;2023-03-01T01:34:58;4.67;;;3.43;;
28958;SDS011;16066;0.000;0.000;2023-03-01T01:37:24;3.37;;;3.00;;
28958;SDS011;16066;0.000;0.000;2023-03-01T01:39:55;3.83;;;3.27;;
28958;SDS011;16066;0.000;0.000;2023-03-01T01:42:22;3.77;;;3.17;;
28958;SDS011;16066;0.000;0.000;2023-03-01T01:44:48;4.60;;;3.50;;
28958;SDS011;16066;0.000;0.000;2023-03-01T01:47:52;4.20;;;3.20;;
28958;SDS011;16066;0.000;0.000;2023-03-01T01:50:20;4.87;;;4.00;;
28958;SDS011;16066;0.000;0.000;2023-03-01T01:52:46;4.33;;;3.93;;
28958;SDS011;16066;0.000;0.000;2023-03-01T01:55:16;4.87;;;3.63;;
28958;SDS011;16066;0.000;0.000;2023-03-01T01:57:46;5.37;;;4.10;;
28958;SDS011;16066;0.000;0.000;2023-03-01T02:00:22;4.27;;;3.03;;
28958;SDS011;16066;0.000;0.000;2023-03-01T02:02:50;11.50;;;3.90;;
28958;SDS011;16066;0.000;0.000;2023-03-01T02:05:22;4.70;;;3.60;;
28958;SDS011;16066;0.000;0.000;2023-03-01T02:07:59;5.97;;;4.20;;
28958;SDS011;16066;0.000;0.000;2023-03-01T02:10:25;4.03;;;3.53;;
28958;SDS011;16066;0.000;0.000;2023-03-01T02:12:52;6.30;;;4.70;;
28958;SDS011;16066;0.000;0.000;2023-03-01T02:15:19;6.70;;;4.00;;
28958;SDS011;16066;0.000;0.000;2023-03-01T02:17:44;5.07;;;3.50;;
28958;SDS011;16066;0.000;0.000;2023-03-01T02:22:46;4.77;;;3.73;;
28958;SDS011;16066;0.000;0.000;2023-03-01T02:30:15;5.23;;;3.93;;
28958;SDS011;16066;0.000;0.000;2023-03-01T02:32:41;4.60;;;3.43;;
28958;SDS011;16066;0.000;0.000;2023-03-01T02:35:10;6.50;;;4.33;;
28958;SDS011;16066;0.000;0.000;2023-03-01T02:37:39;6.57;;;4.20;;
28958;SDS011;16066;0.000;0.000;2023-03-01T02:40:07;6.40;;;4.30;;
28958;SDS011;16066;0.000;0.000;2023-03-01T02:42:37;5.70;;;3.70;;
28958;SDS011;16066;0.000;0.000;2023-03-01T02:45:11;6.57;;;4.10;;
28958;SDS011;16066;0.000;0.000;2023-03-01T02:47:37;4.80;;;3.87;;
28958;SDS011;16066;0.000;0.000;2023-03-01T02:50:02;5.13;;;3.90;;
28958;SDS011;16066;0.000;0.000;2023-03-01T02:52:48;5.27;;;3.67;;
28958;SDS011;16066;0.000;0.000;2023-03-01T02:55:22;9.57;;;4.50;;
28958;SDS011;16066;0.000;0.000;2023-03-01T02:57:48;5.73;;;4.73;;
28958;SDS011;16066;0.000;0.000;2023-03-01T03:00:21;6.30;;;4.40;;
28958;SDS011;16066;0.000;0.000;2023-03-01T03:03:15;5.70;;;4.40;;
28958;SDS011;16066;0.000;0.000;2023-03-01T03:05:45;9.33;;;4.60;;
28958;SDS011;16066;0.000;0.000;2023-03-01T03:08:10;5.97;;;4.03;;
28958;SDS011;16066;0.000;0.000;2023-03-01T03:10:37;6.37;;;4.57;;
28958;SDS011;16066;0.000;0.000;2023-03-01T03:13:08;6.17;;;4.50;;
28958;SDS011;16066;0.000;0.000;2023-03-01T03:15:36;5.90;;;4.43;;
28958;SDS011;16066;0.000;0.000;2023-03-01T03:18:04;5.80;;;4.17;;
28958;SDS011;16066;0.000;0.000;2023-03-01T03:20:32;6.00;;;4.00;;
28958;SDS011;16066;0.000;0.000;2023-03-01T03:22:58;5.47;;;4.40;;
28958;SDS011;16066;0.000;0.000;2023-03-01T03:25:24;6.70;;;4.40;;
28958;SDS011;16066;0.000;0.000;2023-03-01T03:27:52;7.70;;;4.33;;
28958;SDS011;16066;0.000;0.000;2023-03-01T03:30:27;5.10;;;4.27;;
28958;SDS011;16066;0.000;0.000;2023-03-01T03:32:54;6.30;;;4.30;;
28958;SDS011;16066;0.000;0.000;2023-03-01T03:35:21;6.77;;;4.23;;
28958;SDS011;16066;0.000;0.000;2023-03-01T03:37:49;5.90;;;4.30;;
28958;SDS011;16066;0.000;0.000;2023-03-01T03:40:28;5.60;;;4.50;;
28958;SDS011;16066;0.000;0.000;2023-03-01T03:42:58;5.73;;;4.30;;
28958;SDS011;16066;0.000;0.000;2023-03-01T03:45:24;6.00;;;4.67;;
28958;SDS011;16066;0.000;0.000;2023-03-01T03:47:49;5.30;;;4.30;;
28958;SDS011;16066;0.000;0.000;2023-03-01T03:50:16;6.07;;;4.43;;
28958;SDS011;16066;0.000;0.000;2023-03-01T03:52:42;4.97;;;3.50;;
28958;SDS011;16066;0.000;0.000;2023-03-01T03:55:09;7.87;;;5.33;;
28958;SDS011;16066;0.000;0.000;2023-03-01T03:57:36;6.93;;;4.87;;
28958;SDS011;16066;0.000;0.000;2023-03-01T04:00:07;8.07;;;4.60;;
28958;SDS011;16066;0.000;0.000;2023-03-01T04:02:39;5.40;;;4.07;;
28958;SDS011;16066;0.000;0.000;2023-03-01T04:05:06;6.10;;;4.50;;
28958;SDS011;16066;0.000;0.000;2023-03-01T04:07:34;5.87;;;4.83;;
28958;SDS011;16066;0.000;0.000;2023-03-01T04:10:01;8.57;;;5.00;;
28958;SDS011;16066;0.000;0.000;2023-03-01T04:12:28;5.20;;;4.30;;
28958;SDS011;16066;0.000;0.000;2023-03-01T04:14:54;7.73;;;4.70;;
28958;SDS011;16066;0.000;0.000;2023-03-01T04:17:19;6.53;;;4.73;;
28958;SDS011;16066;0.000;0.000;2023-03-01T04:19:45;5.90;;;4.43;;
28958;SDS011;16066;0.000;0.000;2023-03-01T04:22:13;5.77;;;4.23;;
28958;SDS011;16066;0.000;0.000;2023-03-01T04:24:42;5.40;;;3.90;;
28958;SDS011;16066;0.000;0.000;2023-03-01T04:27:08;7.17;;;5.10;;
28958;SDS011;16066;0.000;0.000;2023-03-01T04:29:33;4.83;;;4.00;;
28958;SDS011;16066;0.000;0.000;2023-03-01T04:31:59;5.60;;;4.17;;
28958;SDS011;16066;0.000;0.000;2023-03-01T04:34:24;5.73;;;4.40;;
28958;SDS011;16066;0.000;0.000;2023-03-01T04:36:51;5.50;;;4.67;;
28958;SDS011;16066;0.000;0.000;2023-03-01T04:39:17;6.00;;;5.00;;
28958;SDS011;16066;0.000;0.000;2023-03-01T04:41:43;5.70;;;4.60;;
28958;SDS011;16066;0.000;0.000;2023-03-01T04:44:08;5.43;;;4.10;;
28958;SDS011;16066;0.000;0.000;2023-03-01T04:46:35;6.47;;;4.70;;
28958;SDS011;16066;0.000;0.000;2023-03-01T04:49:01;5.77;;;4.30;;
28958;SDS011;16066;0.000;0.000;2023-03-01T04:51:27;6.63;;;4.83;;
28958;SDS011;16066;0.000;0.000;2023-03-01T04:53:53;5.53;;;4.40;;
28958;SDS011;16066;0.000;0.000;2023-03-01T04:56:19;5.60;;;4.70;;
28958;SDS011;16066;0.000;0.000;2023-03-01T04:58:47;6.00;;;4.27;;
28958;SDS011;16066;0.000;0.000;2023-03-01T05:01:14;6.30;;;4.63;;
28958;SDS011;16066;0.000;0.000;2023-03-01T05:03:42;8.47;;;5.17;;
28958;SDS011;16066;0.000;0.000;2023-03-01T05:06:09;6.93;;;4.33;;
28958;SDS011;16066;0.000;0.000;2023-03-01T05:08:35;6.97;;;4.37;;
28958;SDS011;16066;0.000;0.000;2023-03-01T05:11:02;5.13;;;4.03;;
28958;SDS011;16066;0.000;0.000;2023-03-01T05:13:27;7.67;;;5.13;;
28958;SDS011;16066;0.000;0.000;2023-03-01T05:15:55;7.50;;;5.00;;
28958;SDS011;16066;0.000;0.000;2023-03-01T05:18:25;5.43;;;4.33;;
28958;SDS011;16066;0.000;0.000;2023-03-01T05:21:01;5.53;;;4.70;;
28958;SDS011;16066;0.000;0.000;2023-03-01T05:23:30;5.07;;;4.23;;
28958;SDS011;16066;0.000;0.000;2023-03-01T05:26:00;4.57;;;3.90;;
28958;SDS011;16066;0.000;0.000;2023-03-01T05:28:27;5.80;;;4.30;;
28958;SDS011;16066;0.000;0.000;2023-03-01T05:30:53;5.30;;;3.97;;
28958;SDS011;16066;0.000;0.000;2023-03-01T05:33:19;5.70;;;4.27;;
28958;SDS011;16066;0.000;0.000;2023-03-01T05:35:46;8.97;;;4.50;;
28958;SDS011;16066;0.000;0.000;2023-03-01T05:38:13;5.30;;;4.43;;
28958;SDS011;16066;0.000;0.000;2023-03-01T05:40:40;5.80;;;4.13;;
28958;SDS011;16066;0.000;0.000;2023-03-01T05:43:07;5.10;;;4.00;;
28958;SDS011;16066;0.000;0.000;2023-03-01T05:45:33;5.33;;;4.07;;
28958;SDS011;16066;0.000;0.000;2023-03-01T05:48:01;5.77;;;4.10;;
28958;SDS011;16066;0.000;0.000;2023-03-01T05:50:28;4.77;;;4.13;;
28958;SDS011;16066;0.000;0.000;2023-03-01T05:52:59;4.83;;;4.20;;
28958;SDS011;16066;0.000;0.000;2023-03-01T05:55:25;4.80;;;3.80;;
28958;SDS011;16066;0.000;0.000;2023-03-01T05:57:51;4.70;;;4.20;;
28958;SDS011;16066;0.000;0.000;2023-03-01T06:00:17;5.23;;;4.10;;
28958;SDS011;16066;0.000;0.000;2023-03-01T06:02:44;5.67;;;4.40;;
28958;SDS011;16066;0.000;0.000;2023-03-01T06:05:13;5.70;;;3.80;;
28958;SDS011;16066;0.000;0.000;2023-03-01T06:07:39;5.57;;;4.30;;
28958;SDS011;16066;0.000;0.000;2023-03-01T06:10:06;5.30;;;4.00;;
28958;SDS011;16066;0.000;0.000;2023-03-01T06:12:34;5.97;;;4.77;;
28958;SDS011;16066;0.000;0.000;2023-03-01T06:15:01;4.90;;;4.20;;
28958;SDS011;16066;0.000;0.000;2023-03-01T06:17:31;4.80;;;4.10;;
28958;SDS011;16066;0.000;0.000;2023-03-01T06:20:02;5.90;;;4.33;;
28958;SDS011;16066;0.000;0.000;2023-03-01T06:22:32;7.60;;;4.30;;
28958;SDS011;16066;0.000;0.000;2023-03-01T06:24:58;7.47;;;4.40;;
28958;SDS011;16066;0.000;0.000;2023-03-01T06:27:23;16.33;;;9.13;;
28958;SDS011;16066;0.000;0.000;2023-03-01T06:29:49;31.03;;;16.13;;
28958;SDS011;16066;0.000;0.000;2023-03-01T06:32:15;67.63;;;29.20;;
28958;SDS011;16066;0.000;0.000;2023-03-01T06:34:40;111.67;;;47.77;;
28958;SDS011;16066;0.000;0.000;2023-03-01T06:37:06;126.67;;;52.70;;
28958;SDS011;16066;0.000;0.000;2023-03-01T06:39:32;159.10;;;64.37;;
28958;SDS011;16066;0.000;0.000;2023-03-01T06:41:58;179.10;;;69.43;;
28958;SDS011;16066;0.000;0.000;2023-03-01T06:44:24;182.63;;;68.83;;
28958;SDS011;16066;0.000;0.000;2023-03-01T06:46:50;167.63;;;67.43;;
28958;SDS011;16066;0.000;0.000;2023-03-01T06:49:15;146.43;;;63.10;;
28958;SDS011;16066;0.000;0.000;2023-03-01T06:51:42;134.67;;;60.10;;
28958;SDS011;16066;0.000;0.000;2023-03-01T06:54:08;125.97;;;59.47;;
28958;SDS011;16066;0.000;0.000;2023-03-01T06:56:34;126.57;;;53.23;;
28958;SDS011;16066;0.000;0.000;2023-03-01T06:59:00;111.33;;;50.43;;
28958;SDS011;16066;0.000;0.000;2023-03-01T07:01:27;106.17;;;47.50;;
28958;SDS011;16066;0.000;0.000;2023-03-01T07:03:53;91.90;;;42.80;;
28958;SDS011;16066;0.000;0.000;2023-03-01T07:06:19;96.27;;;43.73;;
28958;SDS011;16066;0.000;0.000;2023-03-01T07:08:44;86.03;;;39.30;;
28958;SDS011;16066;0.000;0.000;2023-03-01T07:11:10;82.87;;;37.70;;
28958;SDS011;16066;0.000;0.000;2023-03-01T07:13:35;70.03;;;34.87;;
28958;SDS011;16066;0.000;0.000;2023-03-01T07:16:01;78.20;;;35.07;;
28958;SDS011;16066;0.000;0.000;2023-03-01T07:18:26;68.27;;;34.50;;
28958;SDS011;16066;0.000;0.000;2023-03-01T07:20:52;64.30;;;31.33;;
28958;SDS011;16066;0.000;0.000;2023-03-01T07:23:17;71.03;;;32.00;;
28958;SDS011;16066;0.000;0.000;2023-03-01T07:25:43;61.37;;;30.30;;
28958;SDS011;16066;0.000;0.000;2023-03-01T07:28:09;62.33;;;26.90;;
28958;SDS011;16066;0.000;0.000;2023-03-01T07:30:34;48.73;;;26.00;;
28958;SDS011;16066;0.000;0.000;2023-03-01T07:33:00;51.40;;;25.97;;
28958;SDS011;16066;0.000;0.000;2023-03-01T07:35:26;54.70;;;24.40;;
28958;SDS011;16066;0.000;0.000;2023-03-01T07:37:52;46.73;;;24.23;;
28958;SDS011;16066;0.000;0.000;2023-03-01T07:40:18;48.50;;;23.23;;
28958;SDS011;16066;0.000;0.000;2023-03-01T07:42:44;44.83;;;21.57;;
28958;SDS011;16066;0.000;0.000;2023-03-01T07:45:10;45.20;;;22.47;;
28958;SDS011;16066;0.000;0.000;2023-03-01T07:47:35;40.30;;;21.20;;
28958;SDS011;16066;0.000;0.000;2023-03-01T07:50:01;39.73;;;19.17;;
28958;SDS011;16066;0.000;0.000;2023-03-01T07:52:27;37.83;;;17.93;;
28958;SDS011;16066;0.000;0.000;2023-03-01T07:54:53;31.83;;;18.07;;
28958;SDS011;16066;0.000;0.000;2023-03-01T07:57:18;30.80;;;18.50;;
28958;SDS011;16066;0.000;0.000;2023-03-01T07:59:44;31.93;;;17.37;;
28958;SDS011;16066;0.000;0.000;2023-03-01T08:02:10;29.50;;;15.20;;
28958;SDS011;16066;0.000;0.000;2023-03-01T08:04:35;31.50;;;16.10;;
28958;SDS011;16066;0.000;0.000;2023-03-01T08:07:04;32.77;;;15.27;;
28958;SDS011;16066;0.000;0.000;2023-03-01T08:09:30;29.47;;;14.03;;
28958;SDS011;16066;0.000;0.000;2023-03-01T08:11:56;29.50;;;14.73;;
28958;SDS011;16066;0.000;0.000;2023-03-01T08:14:24;28.77;;;14.00;;
28958;SDS011;16066;0.000;0.000;2023-03-01T08:16:50;22.77;;;12.67;;
28958;SDS011;16066;0.000;0.000;2023-03-01T08:19:15;24.63;;;12.17;;
28958;SDS011;16066;0.000;0.000;2023-03-01T08:21:41;19.97;;;11.43;;
28958;SDS011;16066;0.000;0.000;2023-03-01T08:24:07;19.73;;;11.20;;
28958;SDS011;16066;0.000;0.000;2023-03-01T08:26:35;21.77;;;10.43;;
28958;SDS011;16066;0.000;0.000;2023-03-01T08:29:01;18.00;;;10.37;;
28958;SDS011;16066;0.000;0.000;2023-03-01T08:33:56;21.60;;;10.83;;
28958;SDS011;16066;0.000;0.000;2023-03-01T08:36:28;16.37;;;8.80;;
28958;SDS011;16066;0.000;0.000;2023-03-01T08:38:58;19.10;;;9.50;;
28958;SDS011;16066;0.000;0.000;2023-03-01T08:41:24;19.93;;;9.53;;
28958;SDS011;16066;0.000;0.000;2023-03-01T08:43:49;15.33;;;8.47;;
28958;SDS011;16066;0.000;0.000;2023-03-01T08:46:15;20.90;;;9.60;;
28958;SDS011;16066;0.000;0.000;2023-03-01T08:48:40;16.03;;;8.73;;
28958;SDS011;16066;0.000;0.000;2023-03-01T08:51:12;13.47;;;7.40;;
28958;SDS011;16066;0.000;0.000;2023-03-01T08:53:39;12.30;;;6.63;;
28958;SDS011;16066;0.000;0.000;2023-03-01T08:56:05;14.20;;;6.93;;
28958;SDS011;16066;0.000;0.000;2023-03-01T08:58:31;15.23;;;6.73;;
28958;SDS011;16066;0.000;0.000;2023-03-01T09:00:57;13.27;;;7.57;;
28958;SDS011;16066;0.000;0.000;2023-03-01T09:03:23;11.87;;;6.90;;
28958;SDS011;16066;0.000;0.000;2023-03-01T09:05:49;12.87;;;7.00;;
28958;SDS011;16066;0.000;0.000;2023-03-01T09:08:16;11.40;;;6.73;;
28958;SDS011;16066;0.000;0.000;2023-03-01T09:10:42;10.43;;;5.93;;
28958;SDS011;16066;0.000;0.000;2023-03-01T09:13:07;9.70;;;6.37;;
28958;SDS011;16066;0.000;0.000;2023-03-01T09:15:33;17.03;;;6.47;;
28958;SDS011;16066;0.000;0.000;2023-03-01T09:18:01;10.30;;;5.90;;
28958;SDS011;16066;0.000;0.000;2023-03-01T09:20:26;9.33;;;5.67;;
28958;SDS011;16066;0.000;0.000;2023-03-01T09:22:52;9.17;;;5.73;;
28958;SDS011;16066;0.000;0.000;2023-03-01T09:25:17;10.17;;;5.87;;
28958;SDS011;16066;0.000;0.000;2023-03-01T09:27:43;10.90;;;6.30;;
28958;SDS011;16066;0.000;0.000;2023-03-01T09:30:08;8.90;;;5.97;;
28958;SDS011;16066;0.000;0.000;2023-03-01T09:32:34;10.47;;;6.10;;
28958;SDS011;16066;0.000;0.000;2023-03-01T09:35:00;8.40;;;5.13;;
28958;SDS011;16066;0.000;0.000;2023-03-01T09:37:28;9.73;;;5.40;;
28958;SDS011;16066;0.000;0.000;2023-03-01T09:39:53;7.23;;;4.90;;
28958;SDS011;16066;0.000;0.000;2023-03-01T09:42:19;7.17;;;5.10;;
28958;SDS011;16066;0.000;0.000;2023-03-01T09:44:47;7.60;;;4.87;;
28958;SDS011;16066;0.000;0.000;2023-03-01T09:47:20;7.70;;;5.00;;
28958;SDS011;16066;0.000;0.000;2023-03-01T09:50:31;10.40;;;5.60;;
28958;SDS011;16066;0.000;0.000;2023-03-01T09:55:31;8.80;;;5.00;;
28958;SDS011;16066;0.000;0.000;2023-03-01T09:58:25;8.30;;;4.67;;
28958;SDS011;16066;0.000;0.000;2023-03-01T10:04:11;7.20;;;4.50;;
28958;SDS011;16066;0.000;0.000;2023-03-01T10:06:38;9.37;;;5.13;;
28958;SDS011;16066;0.000;0.000;2023-03-01T10:09:12;9.60;;;5.27;;
28958;SDS011;16066;0.000;0.000;2023-03-01T10:11:52;6.60;;;4.50;;
28958;SDS011;16066;0.000;0.000;2023-03-01T10:17:18;8.10;;;4.97;;
28958;SDS011;16066;0.000;0.000;2023-03-01T10:20:14;6.57;;;4.90;;
28958;SDS011;16066;0.000;0.000;2023-03-01T10:22:40;13.13;;;5.10;;
28958;SDS011;16066;0.000;0.000;2023-03-01T10:25:06;7.27;;;4.70;;
28958;SDS011;16066;0.000;0.000;2023-03-01T10:28:01;6.77;;;4.70;;
28958;SDS011;16066;0.000;0.000;2023-03-01T10:30:31;9.07;;;4.53;;
28958;SDS011;16066;0.000;0.000;2023-03-01T10:33:00;7.57;;;4.90;;
28958;SDS011;16066;0.000;0.000;2023-03-01T10:35:28;5.80;;;3.90;;
28958;SDS011;16066;0.000;0.000;2023-03-01T10:37:58;8.13;;;4.70;;
28958;SDS011;16066;0.000;0.000;2023-03-01T10:40:32;6.70;;;4.37;;
28958;SDS011;16066;0.000;0.000;2023-03-01T10:42:59;6.47;;;4.33;;
28958;SDS011;16066;0.000;0.000;2023-03-01T10:48:25;6.30;;;4.50;;
28958;SDS011;16066;0.000;0.000;2023-03-01T10:55:58;5.32;;;3.90;;
28958;SDS011;16066;0.000;0.000;2023-03-01T10:58:24;6.20;;;3.85;;
28958;SDS011;16066;0.000;0.000;2023-03-01T11:00:50;4.87;;;3.70;;
28958;SDS011;16066;0.000;0.000;2023-03-01T11:03:29;8.43;;;4.43;;
28958;SDS011;16066;0.000;0.000;2023-03-01T11:06:39;6.17;;;4.70;;
28958;SDS011;16066;0.000;0.000;2023-03-01T11:08:47;5.57;;;3.97;;
28958;SDS011;16066;0.000;0.000;2023-03-01T11:13:55;7.30;;;5.03;;
28958;SDS011;16066;0.000;0.000;2023-03-01T11:16:25;7.43;;;3.80;;
28958;SDS011;16066;0.000;0.000;2023-03-01T11:18:57;5.40;;;4.00;;
28958;SDS011;16066;0.000;0.000;2023-03-01T11:21:30;5.73;;;4.03;;
28958;SDS011;16066;0.000;0.000;2023-03-01T11:23:57;4.73;;;3.90;;
28958;SDS011;16066;0.000;0.000;2023-03-01T11:26:25;4.93;;;3.70;;
28958;SDS011;16066;0.000;0.000;2023-03-01T11:28:53;4.60;;;3.77;;
28958;SDS011;16066;0.000;0.000;2023-03-01T11:31:23;6.37;;;4.20;;
28958;SDS011;16066;0.000;0.000;2023-03-01T11:39:30;4.83;;;3.80;;
28958;SDS011;16066;0.000;0.000;2023-03-01T11:42:12;5.37;;;3.80;;
28958;SDS011;16066;0.000;0.000;2023-03-01T11:44:47;4.90;;;3.50;;
28958;SDS011;16066;0.000;0.000;2023-03-01T11:48:21;5.37;;;4.43;;
28958;SDS011;16066;0.000;0.000;2023-03-01T11:50:26;10.97;;;3.50;;
28958;SDS011;16066;0.000;0.000;2023-03-01T12:01:26;5.33;;;4.13;;
28958;SDS011;16066;0.000;0.000;2023-03-01T12:06:57;4.67;;;3.53;;
28958;SDS011;16066;0.000;0.000;2023-03-01T12:21:06;3.40;;;3.10;;
28958;SDS011;16066;0.000;0.000;2023-03-01T12:37:55;4.17;;;2.97;;
28958;SDS011;16066;0.000;0.000;2023-03-01T12:40:38;4.17;;;3.10;;
28958;SDS011;16066;0.000;0.000;2023-03-01T12:48:24;4.90;;;3.57;;
28958;SDS011;16066;0.000;0.000;2023-03-01T12:51:10;3.30;;;3.00;;
28958;SDS011;16066;0.000;0.000;2023-03-01T12:53:44;3.60;;;3.00;;
28958;SDS011;16066;0.000;0.000;2023-03-01T12:56:13;3.43;;;3.00;;
28958;SDS011;16066;0.000;0.000;2023-03-01T12:58:57;3.93;;;3.13;;
28958;SDS011;16066;0.000;0.000;2023-03-01T13:01:36;4.43;;;3.27;;
28958;SDS011;16066;0.000;0.000;2023-03-01T13:09:25;4.07;;;3.20;;
28958;SDS011;16066;0.000;0.000;2023-03-01T13:12:41;4.33;;;3.10;;
28958;SDS011;16066;0.000;0.000;2023-03-01T13:15:24;3.57;;;2.83;;
28958;SDS011;16066;0.000;0.000;2023-03-01T13:18:01;4.50;;;3.40;;
28958;SDS011;16066;0.000;0.000;2023-03-01T13:31:06;5.90;;;3.57;;
28958;SDS011;16066;0.000;0.000;2023-03-01T13:33:40;3.83;;;3.00;;
28958;SDS011;16066;0.000;0.000;2023-03-01T13:36:09;4.80;;;3.00;;
28958;SDS011;16066;0.000;0.000;2023-03-01T13:38:41;4.30;;;3.20;;
28958;SDS011;16066;0.000;0.000;2023-03-01T13:49:27;4.80;;;3.43;;
28958;SDS011;16066;0.000;0.000;2023-03-01T13:51:54;4.97;;;3.40;;
28958;SDS011;16066;0.000;0.000;2023-03-01T13:54:25;6.50;;;3.30;;
28958;SDS011;16066;0.000;0.000;2023-03-01T13:56:54;7.60;;;3.07;;
28958;SDS011;16066;0.000;0.000;2023-03-01T13:59:21;4.10;;;3.20;;
28958;SDS011;16066;0.000;0.000;2023-03-01T14:01:54;5.23;;;2.67;;
28958;SDS011;16066;0.000;0.000;2023-03-01T14:04:22;5.97;;;3.17;;
28958;SDS011;16066;0.000;0.000;2023-03-01T14:06:51;4.17;;;2.70;;
28958;SDS011;16066;0.000;0.000;2023-03-01T14:09:18;5.20;;;3.63;;
28958;SDS011;16066;0.000;0.000;2023-03-01T14:17:17;5.50;;;3.40;;
28958;SDS011;16066;0.000;0.000;2023-03-01T14:20:12;3.90;;;3.13;;
28958;SDS011;16066;0.000;0.000;2023-03-01T14:22:42;6.40;;;3.77;;
28958;SDS011;16066;0.000;0.000;2023-03-01T14:25:22;3.87;;;2.53;;
28958;SDS011;16066;0.000;0.000;2023-03-01T14:28:41;3.47;;;2.80;;
28958;SDS011;16066;0.000;0.000;2023-03-01T14:30:45;6.97;;;3.30;;
28958;SDS011;16066;0.000;0.000;2023-03-01T14:33:26;4.73;;;3.27;;
28958;SDS011;16066;0.000;0.000;2023-03-01T14:38:39;3.70;;;3.40;;
28958;SDS011;16066;0.000;0.000;2023-03-01T14:41:15;4.30;;;3.00;;
28958;SDS011;16066;0.000;0.000;2023-03-01T14:44:07;4.60;;;2.97;;
28958;SDS011;16066;0.000;0.000;2023-03-01T14:46:40;4.33;;;3.40;;
28958;SDS011;16066;0.000;0.000;2023-03-01T14:49:11;3.93;;;2.97;;
28958;SDS011;16066;0.000;0.000;2023-03-01T14:51:54;3.97;;;2.40;;
28958;SDS011;16066;0.000;0.000;2023-03-01T14:57:14;4.57;;;3.07;;
28958;SDS011;16066;0.000;0.000;2023-03-01T14:59:41;3.50;;;2.53;;
28958;SDS011;16066;0.000;0.000;2023-03-01T15:02:08;3.20;;;2.40;;
28958;SDS011;16066;0.000;0.000;2023-03-01T15:04:42;3.90;;;2.80;;
28958;SDS011;16066;0.000;0.000;2023-03-01T15:07:11;2.83;;;2.50;;
28958;SDS011;16066;0.000;0.000;2023-03-01T15:09:39;3.07;;;2.63;;
28958;SDS011;16066;0.000;0.000;2023-03-01T15:12:25;3.13;;;2.43;;
28958;SDS011;16066;0.000;0.000;2023-03-01T15:14:50;4.43;;;3.33;;
28958;SDS011;16066;0.000;0.000;2023-03-01T15:17:36;5.20;;;2.90;;
28958;SDS011;16066;0.000;0.000;2023-03-01T15:20:13;4.77;;;2.70;;
28958;SDS011;16066;0.000;0.000;2023-03-01T15:22:46;3.73;;;3.07;;
28958;SDS011;16066;0.000;0.000;2023-03-01T15:25:16;4.07;;;3.23;;
28958;SDS011;16066;0.000;0.000;2023-03-01T15:27:47;3.30;;;3.00;;
28958;SDS011;16066;0.000;0.000;2023-03-01T15:30:21;11.03;;;3.07;;
28958;SDS011;16066;0.000;0.000;2023-03-01T15:35:53;5.27;;;2.90;;
28958;SDS011;16066;0.000;0.000;2023-03-01T15:41:23;4.33;;;3.10;;
28958;SDS011;16066;0.000;0.000;2023-03-01T15:43:52;3.30;;;2.53;;
28958;SDS011;16066;0.000;0.000;2023-03-01T15:49:04;3.13;;;2.83;;
28958;SDS011;16066;0.000;0.000;2023-03-01T15:54:05;4.17;;;3.00;;
28958;SDS011;16066;0.000;0.000;2023-03-01T15:56:36;5.37;;;3.13;;
28958;SDS011;16066;0.000;0.000;2023-03-01T15:59:02;4.60;;;2.80;;
28958;SDS011;16066;0.000;0.000;2023-03-01T16:01:27;4.30;;;3.23;;
28958;SDS011;16066;0.000;0.000;2023-03-01T16:03:54;2.70;;;2.50;;
28958;SDS011;16066;0.000;0.000;2023-03-01T16:06:20;3.70;;;2.97;;
28958;SDS011;16066;0.000;0.000;2023-03-01T16:08:45;3.80;;;3.40;;
28958;SDS011;16066;0.000;0.000;2023-03-01T16:11:13;4.50;;;2.80;;
28958;SDS011;16066;0.000;0.000;2023-03-01T16:13:41;3.93;;;2.73;;
28958;SDS011;16066;0.000;0.000;2023-03-01T16:16:07;3.53;;;2.70;;
28958;SDS011;16066;0.000;0.000;2023-03-01T16:18:37;4.30;;;2.47;;
28958;SDS011;16066;0.000;0.000;2023-03-01T16:21:03;4.13;;;3.00;;
28958;SDS011;16066;0.000;0.000;2023-03-01T16:23:29;4.53;;;2.60;;
28958;SDS011;16066;0.000;0.000;2023-03-01T16:25:58;4.50;;;3.30;;
28958;SDS011;16066;0.000;0.000;2023-03-01T16:28:24;3.40;;;3.07;;
28958;SDS011;16066;0.000;0.000;2023-03-01T16:30:51;4.70;;;3.23;;
28958;SDS011;16066;0.000;0.000;2023-03-01T16:33:16;3.33;;;2.60;;
28958;SDS011;16066;0.000;0.000;2023-03-01T16:35:42;3.00;;;2.27;;
28958;SDS011;16066;0.000;0.000;2023-03-01T16:38:08;5.27;;;3.10;;
28958;SDS011;16066;0.000;0.000;2023-03-01T16:40:35;4.80;;;2.90;;
28958;SDS011;16066;0.000;0.000;2023-03-01T16:43:00;3.30;;;2.40;;
28958;SDS011;16066;0.000;0.000;2023-03-01T16:45:33;3.60;;;2.80;;
28958;SDS011;16066;0.000;0.000;2023-03-01T16:48:00;3.53;;;2.60;;
28958;SDS011;16066;0.000;0.000;2023-03-01T16:50:26;5.23;;;2.70;;
28958;SDS011;16066;0.000;0.000;2023-03-01T16:52:52;5.83;;;3.63;;
28958;SDS011;16066;0.000;0.000;2023-03-01T16:55:17;5.30;;;3.10;;
28958;SDS011;16066;0.000;0.000;2023-03-01T16:57:43;5.57;;;3.70;;
28958;SDS011;16066;0.000;0.000;2023-03-01T17:00:09;5.00;;;3.47;;
28958;SDS011;16066;0.000;0.000;2023-03-01T17:02:37;4.47;;;3.00;;
28958;SDS011;16066;0.000;0.000;2023-03-01T17:05:03;6.10;;;3.33;;
28958;SDS011;16066;0.000;0.000;2023-03-01T17:07:30;4.60;;;3.37;;
28958;SDS011;16066;0.000;0.000;2023-03-01T17:09:58;4.10;;;3.03;;
28958;SDS011;16066;0.000;0.000;2023-03-01T17:12:24;5.70;;;3.37;;